Apache, Nevada
Current Conditions -  °F | °C
As of 8:56 AM on Friday 31 Oct 2014 (Local Time) from KWMC Reporting Station
Clear Clear  
Wind Chill: 42°   Ceiling: Unl
Heat Index: 42°   Visibility: 10mi
Dew Point: 24°   Wind: 0mph
Humidity: 49%   Direction: NA
Pressure: 29.89"   Gusts: NA
Location:  40.601°N, 117.984°W
Report Text: KWMC 311556Z AUTO 00000KT 10SM CLR 06/M04 A2989 RMK AO2 SLP115 T00561044
Loading
Personal Weather Stations






























Interactive Weather Map New forecast layout! Learn more

10-Day Weather Forecast

Advertisements
Track Severe Weather on mobile